Lantana, FL

5:56 PM EDT on July 02, 2015 (GMT -0400)
Lantana | | Change Station
CLOSE
Current Station
Personal Weather Station
Location: Lantana, FL
Elevation: 16 ft
Nearby Weather Stations

Elev 16 ft 26.58 °N, 80.06 °W | Updated 1 minute ago

Partly Cloudy
Partly Cloudy
85.3 °F
Feels Like 93 °F
N
3.0
Wind Variable Wind from ESE
Gusts 5.0 mph

Today
High -- | Low -- °F
--% Chance of Precip.
Yesterday
High -- | Low -- °F
Precip. -- in
6:31 AM 8:17 PM
Full, 99% visible
Pressure 30.07 in
Visibility 10.0 miles
Clouds Few 2900 ft
Scattered Clouds 16000 ft
Scattered Clouds 23000 ft
Heat Index 93 °F
Dew Point 74 °F
Humidity 68%
Rainfall 0.23 in
Snow Depth Not available.
UV 3 out of 12
Pollen 4.20 out of 12
Air Quality Not available.
Flu Activity Not available.
METAR KPBI 022153Z 11010KT 10SM FEW029 SCT160 SCT230 29/23 A3007 RMK AO2 SLP183 CB DSNT NW T02940228 $

More Conditions Fewer Conditions

Pressure 30.07 in
Visibility 10.0 miles
Clouds Few 2900 ft
Scattered Clouds 16000 ft
Scattered Clouds 23000 ft
Heat Index 93 °F
Dew Point 74 °F
Humidity 68%
Rainfall 0.23 in
Snow Depth Not available.
UV 3 out of 12
Pollen 4.20 out of 12
Air Quality Not available.
Flu Activity Not available.
METAR KPBI 022153Z 11010KT 10SM FEW029 SCT160 SCT230 29/23 A3007 RMK AO2 SLP183 CB DSNT NW T02940228 $

More Conditions Fewer Conditions

10-Day Weather Forecast

×

Almanac

Astronomy

Jul. 02, 2015 Rise Set
Actual Time
Civil Twilight
Nautical Twilight
Astronomical Twilight
Moon
Length of Visible Light
Length of Day
Tomorrow will be .
, % of the Moon is Illuminated

Today's Extremes

State Highs State Lows

Community

WunderPhotos

Upload Photos

1,834,548 photos uploaded!

WunderBlogs® & News

Nearby

Air Quality

  Air Quality AQ Index Pollutant
Not available.

Snow Depth

Station Depth Elevation

Earthquake Activity

City Distance Mag. Time & Date
Minimum magnitude displayed is 2.5.

Coastal Water Temperatures

Place Temperature

Stations

Nearby Weather Stations

Station Location Temp. Windchill Dew Point Humidity Wind Precip. Elev Updated Type